首页
METAR-TAF:

METAR-TAF

机场 :

奈洛比, 肯尼亚

乔莫·肯雅塔国际机场

纬度: 01-19S, 经度: 036-55E, 海拔: 1624米

当前天气观测

该预报发布于36分钟前的17:30 UTC
风速6节,风向
温度 18°C
湿度 94%
气压 1022 hPa
能见度10公里或以上
少量云层高于1900英尺
多云层高于10000英尺

METAR: HKJK 241730Z 08006KT 9999 FEW019 BKN100 18/17 Q1022

时间: 21:06 (18:06 UTC)

预报

该预报发布于1小时和6分钟前的17:00 UTC
预报有效从24日的 18点(UTC)到 25日的 24点(UTC)
风速10节,风向
能见度10公里或以上
多云层高于1900英尺
多云层高于8000英尺
小雨
成为
从 24日的 20点(UTC)到 24日的 23点(UTC)
风速5节,风向南转西南
少量云层高于800英尺
散云层高于1600英尺
多云层高于8000英尺
小雨
成为
从 25日的 08点(UTC)到 25日的 11点(UTC)
风速10节,风向
散云层高于2400英尺
短暂存在
从 25日的 12点(UTC)到 25日的 18点(UTC)
风速10节,风向多变
少量云层高于2100英尺, 积雨云.
多云层高于2200英尺
多云层高于8000英尺
雷暴, 小雨
短暂存在
从 24日的 12点(UTC)到 24日的 18点(UTC)
少量云层高于1800英尺, 积雨云.
散云层高于1900英尺
多云层高于8000英尺
小阵雨

TAF: HKJK 241700Z 2418/2524 08010KT 9999 -RA BKN019 BKN080 BECMG 2420/2423 21005KT -RA FEW008 SCT016 BKN080 BECMG 2508/2511 09010KT SCT024 TEMPO 2512/2518 VRB10KT -TSRA FEW021CB BKN022 BKN080 TEMPO 2412/2418 -SHRA FEW018CB SCT019 BKN080

超过4000个机场的气象观测和天气预报(METAR&TAF报告)。

可查询的气象台以黄色和红色小点在地图上表示。

将鼠标移到小点上方,可查看气象台名称。

然后点击查看天气观测和预报。

如需切换地图:点击带黑十字的绿色按钮放大地图;点击带横线的绿色按钮缩小地图;或者点击绿色箭头查看邻近地区的地图。


METAR-TAF: